createdAt,value
2022-09-09T00:03:04.482Z,99845.63
2022-09-09T00:06:17.917Z,99852.94
2022-09-09T00:09:23.059Z,99858.28
2022-09-09T00:12:34.368Z,99844.75
2022-09-09T00:15:43.014Z,99807.09
2022-09-09T00:18:55.918Z,99829.78
2022-09-09T00:22:15.025Z,99836.38
2022-09-09T00:25:25.599Z,99818.56
2022-09-09T00:28:31.272Z,99823.59
2022-09-09T00:31:34.300Z,99838.63
2022-09-09T00:34:41.374Z,99833.50
2022-09-09T00:37:45.984Z,99832.19
2022-09-09T00:40:53.832Z,99833.25
2022-09-09T00:44:02.460Z,99831.94
2022-09-09T00:47:14.185Z,99842.38
2022-09-09T00:50:37.433Z,99843.16
2022-09-09T00:53:57.808Z,99838.25
2022-09-09T00:57:12.396Z,99845.44
2022-09-09T01:00:22.323Z,99834.00
2022-09-09T01:03:35.615Z,99834.75
2022-09-09T01:06:40.769Z,99838.44
2022-09-09T01:09:53.711Z,99810.22
2022-09-09T01:13:01.509Z,99835.19
2022-09-09T01:16:07.400Z,99826.19
2022-09-09T01:19:22.008Z,99827.91
2022-09-09T01:22:37.462Z,99834.13
2022-09-09T01:26:18.184Z,99828.47
2022-09-09T01:29:24.395Z,99831.09
2022-09-09T01:32:42.709Z,99823.03
2022-09-09T01:35:51.807Z,99825.22
2022-09-09T01:38:55.954Z,99828.19
2022-09-09T01:42:02.572Z,99822.19
2022-09-09T01:45:08.252Z,99832.31
2022-09-09T01:48:11.538Z,99822.50
2022-09-09T01:51:14.280Z,99830.03
2022-09-09T01:54:17.454Z,99807.78
2022-09-09T01:57:25.265Z,99811.94
2022-09-09T02:00:32.618Z,99808.22
2022-09-09T02:03:37.279Z,99813.03
2022-09-09T02:06:42.138Z,99816.06
2022-09-09T02:09:49.811Z,99820.56
2022-09-09T02:12:58.082Z,99833.63
2022-09-09T02:16:09.079Z,99832.97
2022-09-09T02:19:15.570Z,99837.19
2022-09-09T02:22:22.000Z,99837.63
2022-09-09T02:25:28.916Z,99826.72
2022-09-09T02:28:35.738Z,99836.94
2022-09-09T02:31:41.464Z,99825.50
2022-09-09T02:34:49.266Z,99829.88
2022-09-09T02:37:55.583Z,99827.34
2022-09-09T02:40:59.198Z,99814.94
2022-09-09T02:44:02.742Z,99823.09
2022-09-09T02:47:24.123Z,99828.22
2022-09-09T02:50:34.881Z,99820.03
2022-09-09T02:53:48.735Z,99811.63
2022-09-09T02:56:55.301Z,99817.97
2022-09-09T03:00:00.210Z,99808.13
2022-09-09T03:03:05.025Z,99818.06
2022-09-09T03:06:08.329Z,99818.63
2022-09-09T03:09:11.908Z,99823.09
2022-09-09T03:12:15.113Z,99825.31
2022-09-09T03:15:18.443Z,99821.22
2022-09-09T03:18:22.593Z,99815.78
2022-09-09T03:21:25.879Z,99813.94
2022-09-09T03:24:28.633Z,99813.81
2022-09-09T03:27:31.676Z,99813.56
2022-09-09T03:30:34.470Z,99819.03
2022-09-09T03:33:38.572Z,99811.63
2022-09-09T03:36:42.436Z,99811.28
2022-09-09T03:39:46.622Z,99810.31
2022-09-09T03:42:49.661Z,99798.72
2022-09-09T03:45:53.168Z,99799.59
2022-09-09T03:48:58.589Z,99801.88
2022-09-09T03:52:02.028Z,99795.78
2022-09-09T03:55:05.603Z,99801.44
2022-09-09T03:58:08.887Z,99792.50
2022-09-09T04:01:14.458Z,99793.97
2022-09-09T04:04:18.652Z,99800.38
2022-09-09T04:07:22.467Z,99801.69
2022-09-09T04:10:25.212Z,99798.41
2022-09-09T04:13:28.407Z,99799.84
2022-09-09T04:16:31.388Z,99803.97
2022-09-09T04:19:35.499Z,99797.94
2022-09-09T04:22:40.199Z,99812.81
2022-09-09T04:25:48.146Z,99813.69
2022-09-09T04:28:51.539Z,99808.34
2022-09-09T04:31:54.387Z,99812.13
2022-09-09T04:34:59.008Z,99799.78
2022-09-09T04:38:03.597Z,99807.19
2022-09-09T04:41:08.712Z,99817.09
2022-09-09T04:44:11.724Z,99811.84
2022-09-09T04:47:15.960Z,99812.81
2022-09-09T04:50:20.404Z,99813.00
2022-09-09T04:53:23.807Z,99822.94
2022-09-09T04:56:28.222Z,99822.94
2022-09-09T04:59:31.216Z,99825.88
2022-09-09T05:02:34.282Z,99826.84
2022-09-09T05:05:39.047Z,99828.00
2022-09-09T05:08:44.508Z,99823.75
2022-09-09T05:11:47.225Z,99827.59
2022-09-09T05:14:49.881Z,99835.53
2022-09-09T05:17:53.846Z,99842.53
2022-09-09T05:21:03.009Z,99821.53
2022-09-09T05:24:05.925Z,99834.16
2022-09-09T05:27:08.560Z,99843.94
2022-09-09T05:30:12.134Z,99857.69
2022-09-09T05:33:14.924Z,99859.81
2022-09-09T05:36:21.065Z,99846.81
2022-09-09T05:39:24.161Z,99850.78
2022-09-09T05:42:27.179Z,99854.59
2022-09-09T05:45:30.832Z,99853.22
2022-09-09T05:48:35.228Z,99857.84
2022-09-09T05:51:39.887Z,99871.03
2022-09-09T05:54:43.675Z,99872.59
2022-09-09T05:57:51.040Z,99868.78
2022-09-09T06:00:53.725Z,99873.41
2022-09-09T06:03:57.074Z,99867.56
2022-09-09T06:07:01.556Z,99873.22
2022-09-09T06:10:04.438Z,99869.34
2022-09-09T06:13:07.140Z,99867.84
2022-09-09T06:16:12.791Z,99861.59
2022-09-09T06:19:15.588Z,99856.06
2022-09-09T06:22:20.235Z,99853.84
2022-09-09T06:25:23.098Z,99851.28
2022-09-09T06:28:26.449Z,99844.53
2022-09-09T06:34:55.432Z,99838.72
2022-09-09T06:37:59.589Z,99841.97
2022-09-09T06:41:02.831Z,99819.16
2022-09-09T06:44:05.801Z,99837.00
2022-09-09T06:47:08.940Z,99835.97
2022-09-09T06:50:12.244Z,99834.50
2022-09-09T06:53:20.166Z,99826.44
2022-09-09T06:56:26.042Z,99813.63
2022-09-09T06:59:29.156Z,99807.81
2022-09-09T07:02:32.105Z,99812.84
2022-09-09T07:05:35.319Z,99827.31
2022-09-09T07:08:39.391Z,99832.78
2022-09-09T07:11:43.859Z,99836.09
2022-09-09T07:14:46.762Z,99847.72
2022-09-09T07:17:53.032Z,99847.78
2022-09-09T07:20:57.143Z,99828.41
2022-09-09T07:24:01.787Z,99843.88
2022-09-09T07:27:05.194Z,99844.94
2022-09-09T07:30:09.371Z,99845.25
2022-09-09T07:33:12.080Z,99856.97
2022-09-09T07:36:17.089Z,99850.34
2022-09-09T07:39:21.064Z,99847.69
2022-09-09T07:42:23.858Z,99853.28
2022-09-09T07:45:29.274Z,99853.09
2022-09-09T07:48:31.989Z,99851.50
2022-09-09T07:51:37.183Z,99852.25
2022-09-09T07:54:42.913Z,99850.22
2022-09-09T07:57:45.781Z,99847.63
2022-09-09T08:00:48.470Z,99840.31
2022-09-09T08:03:56.817Z,99845.69
2022-09-09T08:07:02.258Z,99843.22
2022-09-09T08:10:07.437Z,99850.28
2022-09-09T08:13:18.723Z,99838.13
2022-09-09T08:16:23.819Z,99858.44
2022-09-09T08:19:26.642Z,99860.53
2022-09-09T08:22:29.342Z,99860.69
2022-09-09T08:25:35.654Z,99858.34
2022-09-09T08:28:38.611Z,99861.59
2022-09-09T08:31:44.712Z,99862.75
2022-09-09T08:34:47.719Z,99855.94
2022-09-09T08:37:51.473Z,99857.06
2022-09-09T08:41:05.749Z,99852.28
2022-09-09T08:44:13.342Z,99833.91
2022-09-09T08:47:34.319Z,99844.84
2022-09-09T08:50:41.661Z,99857.41
2022-09-09T08:53:50.126Z,99854.66
2022-09-09T08:56:54.197Z,99849.13
2022-09-09T08:59:58.615Z,99850.88
2022-09-09T09:03:11.800Z,99853.22
2022-09-09T09:06:28.978Z,99856.00
2022-09-09T09:09:39.492Z,99850.88
2022-09-09T09:12:48.464Z,99834.81
2022-09-09T09:15:57.885Z,99844.47
2022-09-09T09:19:01.376Z,99841.25
2022-09-09T09:22:09.050Z,99837.28
2022-09-09T09:25:18.933Z,99855.06
2022-09-09T09:28:26.797Z,99848.16
2022-09-09T09:31:29.725Z,99853.56
2022-09-09T09:34:33.550Z,99856.59
2022-09-09T09:37:37.474Z,99860.75
2022-09-09T09:40:51.845Z,99860.03
2022-09-09T09:43:56.829Z,99864.19
2022-09-09T09:47:09.444Z,99880.44
2022-09-09T09:50:19.813Z,99876.97
2022-09-09T09:53:26.092Z,99885.34
2022-09-09T09:56:30.795Z,99878.09
2022-09-09T09:59:40.715Z,99881.47
2022-09-09T10:02:45.229Z,99874.34
2022-09-09T10:05:48.714Z,99866.66
2022-09-09T10:08:53.223Z,99870.69
2022-09-09T10:12:04.696Z,99871.44
2022-09-09T10:15:28.312Z,99867.69
2022-09-09T10:18:49.861Z,99872.03
2022-09-09T10:22:03.815Z,99870.69
2022-09-09T10:25:20.485Z,99865.66
2022-09-09T10:28:37.216Z,99865.47
2022-09-09T10:31:57.929Z,99857.91
2022-09-09T10:35:06.574Z,99854.44
2022-09-09T10:38:21.658Z,99843.72
2022-09-09T10:41:37.599Z,99829.69
2022-09-09T10:44:57.696Z,99829.63
2022-09-09T10:48:21.184Z,99816.53
2022-09-09T10:51:28.677Z,99823.66
2022-09-09T10:54:49.200Z,99824.50
2022-09-09T10:57:53.380Z,99815.44
2022-09-09T11:01:01.452Z,99820.41
2022-09-09T11:04:13.135Z,99827.22
2022-09-09T11:07:27.581Z,99830.50
2022-09-09T11:10:41.114Z,99825.38
2022-09-09T11:13:52.360Z,99817.97
2022-09-09T11:17:01.151Z,99802.38
2022-09-09T11:20:07.743Z,99800.66
2022-09-09T11:23:17.224Z,99791.44
2022-09-09T11:26:30.715Z,99780.88
2022-09-09T11:30:09.843Z,99784.44
2022-09-09T11:33:33.142Z,99791.44
2022-09-09T11:37:07.439Z,99782.84
2022-09-09T11:40:18.304Z,99780.75
2022-09-09T11:43:26.670Z,99784.72
2022-09-09T11:46:37.479Z,99784.50
2022-09-09T11:49:44.074Z,99775.56
2022-09-09T11:52:50.453Z,99783.44
2022-09-09T11:56:09.201Z,99793.38
2022-09-09T11:59:23.089Z,99786.47
2022-09-09T12:02:27.772Z,99785.94
2022-09-09T12:05:40.502Z,99789.13
2022-09-09T12:08:48.812Z,99782.34
2022-09-09T12:11:52.632Z,99770.03
2022-09-09T12:15:18.190Z,99791.09
2022-09-09T12:18:26.195Z,99783.31
2022-09-09T12:21:41.818Z,99779.44
2022-09-09T12:24:54.928Z,99780.50
2022-09-09T12:28:07.720Z,99782.22
2022-09-09T12:31:18.639Z,99776.50
2022-09-09T12:34:34.265Z,99775.13
2022-09-09T12:37:39.359Z,99764.19
2022-09-09T12:40:43.808Z,99764.13
2022-09-09T12:43:48.553Z,99761.06
2022-09-09T12:46:52.151Z,99764.69
2022-09-09T12:49:58.559Z,99749.09
2022-09-09T12:53:05.803Z,99749.09
2022-09-09T12:56:20.380Z,99748.56
2022-09-09T12:59:26.621Z,99740.41
2022-09-09T13:02:31.189Z,99744.91
2022-09-09T13:05:38.454Z,99738.03
2022-09-09T13:08:42.014Z,99749.09
2022-09-09T13:11:52.463Z,99750.44
2022-09-09T13:14:58.150Z,99747.47
2022-09-09T13:18:06.101Z,99737.22
2022-09-09T13:21:09.000Z,99715.75
2022-09-09T13:24:28.486Z,99745.28
2022-09-09T13:27:35.571Z,99748.06
2022-09-09T13:30:41.902Z,99760.91
2022-09-09T13:33:45.040Z,99784.84
2022-09-09T13:36:49.970Z,99805.34
2022-09-09T13:39:55.081Z,99806.06
2022-09-09T13:43:00.590Z,99808.59
2022-09-09T13:46:04.827Z,99823.03
2022-09-09T13:49:22.860Z,99827.72
2022-09-09T13:52:27.039Z,99813.94
2022-09-09T13:55:31.436Z,99806.50
2022-09-09T13:58:36.038Z,99809.97
2022-09-09T14:01:39.023Z,99816.34
2022-09-09T14:04:42.847Z,99818.53
2022-09-09T14:07:49.159Z,99819.59
2022-09-09T14:10:56.482Z,99831.75
2022-09-09T14:14:02.059Z,99821.06
2022-09-09T14:17:07.561Z,99832.94
2022-09-09T14:20:13.149Z,99833.38
2022-09-09T14:23:16.565Z,99840.47
2022-09-09T14:26:19.938Z,99846.63
2022-09-09T14:29:26.153Z,99851.81
2022-09-09T14:32:30.190Z,99856.28
2022-09-09T14:35:34.409Z,99857.13
2022-09-09T14:38:40.416Z,99853.22
2022-09-09T14:41:43.183Z,99848.72
2022-09-09T14:44:47.448Z,99849.47
2022-09-09T14:47:51.497Z,99851.94
2022-09-09T14:50:54.257Z,99842.38
2022-09-09T14:53:58.935Z,99843.81
2022-09-09T14:57:01.651Z,99835.59
2022-09-09T15:00:07.340Z,99819.59
2022-09-09T15:03:10.830Z,99807.97
2022-09-09T15:06:15.371Z,99795.53
2022-09-09T15:09:18.195Z,99784.16
2022-09-09T15:12:21.562Z,99781.25
2022-09-09T15:15:25.672Z,99779.38
2022-09-09T15:18:28.345Z,99785.50
2022-09-09T15:21:33.091Z,99778.94
2022-09-09T15:24:36.440Z,99779.63
2022-09-09T15:27:40.250Z,99774.72
2022-09-09T15:30:46.425Z,99772.84
2022-09-09T15:33:50.256Z,99749.81
2022-09-09T15:36:53.122Z,99771.06
2022-09-09T15:39:55.811Z,99765.72
2022-09-09T15:42:58.585Z,99767.41
2022-09-09T15:46:25.435Z,99774.13
2022-09-09T15:49:28.808Z,99770.25
2022-09-09T15:52:31.475Z,99777.97
2022-09-09T15:55:34.263Z,99786.97
2022-09-09T15:58:37.917Z,99792.41
2022-09-09T16:01:43.400Z,99781.91
2022-09-09T16:04:46.223Z,99811.13
2022-09-09T16:07:48.984Z,99815.56
2022-09-09T16:10:51.992Z,99815.59
2022-09-09T16:13:56.141Z,99830.22
2022-09-09T16:17:00.171Z,99829.81
2022-09-09T16:20:04.133Z,99832.84
2022-09-09T16:23:06.795Z,99836.31
2022-09-09T16:26:12.915Z,99843.09
2022-09-09T16:29:16.704Z,99850.13
2022-09-09T16:32:21.174Z,99857.88
2022-09-09T16:35:24.086Z,99857.88
2022-09-09T16:38:26.787Z,99856.88
2022-09-09T16:41:30.963Z,99861.81
2022-09-09T16:44:33.671Z,99870.81
2022-09-09T16:47:37.723Z,99880.03
2022-09-09T16:50:41.089Z,99881.53
2022-09-09T16:53:45.002Z,99878.59
2022-09-09T16:56:50.065Z,99873.59
2022-09-09T16:59:55.064Z,99874.75
2022-09-09T17:02:59.919Z,99861.16
2022-09-09T17:06:03.471Z,99863.16
2022-09-09T17:09:08.395Z,99855.94
2022-09-09T17:12:13.069Z,99854.44
2022-09-09T17:15:16.067Z,99847.88
2022-09-09T17:18:20.364Z,99850.63
2022-09-09T17:21:26.834Z,99859.84
2022-09-09T17:24:30.126Z,99845.38
2022-09-09T17:27:34.161Z,99850.75
2022-09-09T17:30:37.796Z,99854.06
2022-09-09T17:33:44.113Z,99868.13
2022-09-09T17:36:47.216Z,99869.69
2022-09-09T17:39:50.462Z,99873.91
2022-09-09T17:42:53.298Z,99866.94
2022-09-09T17:45:56.030Z,99886.63
2022-09-09T17:49:02.137Z,99892.03
2022-09-09T17:52:04.974Z,99891.88
2022-09-09T17:55:10.023Z,99896.94
2022-09-09T17:58:12.778Z,99905.75
2022-09-09T18:01:18.834Z,99906.63
2022-09-09T18:04:23.090Z,99916.25
2022-09-09T18:07:26.250Z,99912.25
2022-09-09T18:10:29.303Z,99903.13
2022-09-09T18:13:32.101Z,99902.75
2022-09-09T18:16:36.134Z,99898.84
2022-09-09T18:19:40.751Z,99910.09
2022-09-09T18:22:44.038Z,99907.06
2022-09-09T18:25:46.932Z,99914.97
2022-09-09T18:28:51.330Z,99908.47
2022-09-09T18:31:55.115Z,99926.94
2022-09-09T18:34:59.384Z,99930.66
2022-09-09T18:38:02.468Z,99928.13
2022-09-09T18:41:14.999Z,99926.63
2022-09-09T18:44:20.766Z,99945.50
2022-09-09T18:47:24.729Z,99959.19
2022-09-09T18:50:29.328Z,99970.31
2022-09-09T18:53:32.256Z,99966.94
2022-09-09T18:56:35.991Z,99976.97
2022-09-09T18:59:38.862Z,99973.25
2022-09-09T19:02:42.034Z,99968.66
2022-09-09T19:05:46.595Z,99962.97
2022-09-09T19:08:53.484Z,99970.97
2022-09-09T19:11:59.815Z,99978.25
2022-09-09T19:15:03.238Z,99980.34
2022-09-09T19:18:06.115Z,99987.22
2022-09-09T19:21:15.160Z,99992.34
2022-09-09T19:24:20.351Z,99994.38
2022-09-09T19:27:23.247Z,99993.50
2022-09-09T19:30:26.362Z,100006.16
2022-09-09T19:33:31.575Z,100003.75
2022-09-09T19:36:35.645Z,100011.38
2022-09-09T19:39:38.431Z,100011.38
2022-09-09T19:42:42.317Z,100003.44
2022-09-09T19:45:45.079Z,99990.22
2022-09-09T19:48:48.563Z,100003.19
2022-09-09T19:51:52.576Z,100007.72
2022-09-09T19:54:56.039Z,99992.78
2022-09-09T19:57:58.832Z,100017.84
2022-09-09T20:01:07.256Z,100012.94
2022-09-09T20:04:10.263Z,99994.88
2022-09-09T20:07:15.260Z,99998.84
2022-09-09T20:10:18.278Z,100000.47
2022-09-09T20:13:21.633Z,100004.53
2022-09-09T20:16:26.567Z,99995.56
2022-09-09T20:19:29.721Z,100005.50
2022-09-09T20:22:34.072Z,100006.16
2022-09-09T20:25:37.203Z,100013.13
2022-09-09T20:28:42.258Z,100016.53
2022-09-09T20:31:45.538Z,100016.19
2022-09-09T20:34:48.577Z,100008.88
2022-09-09T20:37:52.600Z,100016.84
2022-09-09T20:40:56.769Z,100010.16
2022-09-09T20:44:02.594Z,100017.84
2022-09-09T20:47:06.692Z,100015.44
2022-09-09T20:50:10.493Z,100009.13
2022-09-09T20:53:15.226Z,99976.09
2022-09-09T20:56:18.223Z,100002.88
2022-09-09T20:59:22.813Z,100002.09
2022-09-09T21:02:25.732Z,99998.41
2022-09-09T21:05:28.915Z,99999.16
2022-09-09T21:08:34.021Z,99997.31
2022-09-09T21:11:37.267Z,100007.50
2022-09-09T21:14:39.991Z,100019.59
2022-09-09T21:17:43.345Z,100008.44
2022-09-09T21:20:47.100Z,100012.28
2022-09-09T21:23:54.319Z,100011.50
2022-09-09T21:26:57.021Z,100018.94
2022-09-09T21:29:59.736Z,100027.91
2022-09-09T21:33:04.103Z,100009.88
2022-09-09T21:36:08.173Z,100012.59
2022-09-09T21:39:12.292Z,100008.88
2022-09-09T21:42:15.388Z,100005.06
2022-09-09T21:45:19.817Z,100007.25
2022-09-09T21:48:24.009Z,100009.34
2022-09-09T21:51:27.141Z,100007.78
2022-09-09T21:54:32.707Z,100007.34
2022-09-09T21:57:35.522Z,100010.88
2022-09-09T22:01:03.341Z,100006.59
2022-09-09T22:04:06.054Z,100001.56
2022-09-09T22:07:08.915Z,99996.97
2022-09-09T22:10:13.686Z,99992.84
2022-09-09T22:13:17.913Z,100000.56
2022-09-09T22:16:22.540Z,100005.47
2022-09-09T22:19:25.588Z,100003.84
2022-09-09T22:22:28.931Z,100012.03
2022-09-09T22:25:35.896Z,99999.94
2022-09-09T22:28:39.499Z,100008.22
2022-09-09T22:31:43.371Z,100000.34
2022-09-09T22:34:46.781Z,99993.78
2022-09-09T22:37:49.583Z,100009.19
2022-09-09T22:40:53.708Z,100002.75
2022-09-09T22:43:56.997Z,99998.47
2022-09-09T22:47:00.693Z,99998.81
2022-09-09T22:50:04.257Z,99996.94
2022-09-09T22:53:07.607Z,100012.75
2022-09-09T22:56:17.174Z,100011.56
2022-09-09T22:59:20.917Z,100007.09
2022-09-09T23:02:24.085Z,100001.72
2022-09-09T23:05:27.634Z,100011.00
2022-09-09T23:08:36.599Z,100012.09
2022-09-09T23:11:40.887Z,100008.84
2022-09-09T23:14:43.666Z,100014.28
2022-09-09T23:17:46.452Z,100021.38
2022-09-09T23:21:00.624Z,100026.34
2022-09-09T23:24:05.019Z,100023.94
2022-09-09T23:27:09.101Z,100023.72
2022-09-09T23:30:12.768Z,100025.47
2022-09-09T23:33:15.497Z,100028.88
2022-09-09T23:36:21.296Z,100020.44
2022-09-09T23:39:24.131Z,100019.22
2022-09-09T23:42:28.735Z,100016.94
2022-09-09T23:45:34.241Z,100005.88
2022-09-09T23:48:39.164Z,100024.47
2022-09-09T23:51:42.400Z,100032.47
2022-09-09T23:54:45.610Z,100022.28
2022-09-09T23:57:49.924Z,100026.78
